createdAt,value
2022-12-09T00:00:20.116Z,28.52
2022-12-09T00:02:48.163Z,30.83
2022-12-09T00:05:16.361Z,27.88
2022-12-09T00:07:44.395Z,32.78
2022-12-09T00:10:12.808Z,28.48
2022-12-09T00:12:40.892Z,33.50
2022-12-09T00:15:10.628Z,28.85
2022-12-09T00:17:38.465Z,30.45
2022-12-09T00:20:08.188Z,26.55
2022-12-09T00:22:37.472Z,28.90
2022-12-09T00:25:05.675Z,28.30
2022-12-09T00:27:33.489Z,30.08
2022-12-09T00:30:02.017Z,24.35
2022-12-09T00:32:31.071Z,28.73
2022-12-09T00:34:58.966Z,29.25
2022-12-09T00:37:26.854Z,23.23
2022-12-09T00:39:54.886Z,25.98
2022-12-09T00:42:22.631Z,23.90
2022-12-09T00:44:50.292Z,24.40
2022-12-09T00:47:18.156Z,27.45
2022-12-09T00:49:48.670Z,21.70
2022-12-09T00:52:16.344Z,92.20
2022-12-09T00:54:44.368Z,129.77
2022-12-09T00:57:12.256Z,93.40
2022-12-09T00:59:40.088Z,66.57
2022-12-09T01:02:07.895Z,37.30
2022-12-09T01:04:36.109Z,35.47
2022-12-09T01:07:06.648Z,28.10
2022-12-09T01:09:35.150Z,28.15
2022-12-09T01:12:03.908Z,30.63
2022-12-09T01:14:31.565Z,31.92
2022-12-09T01:16:59.364Z,27.00
2022-12-09T01:19:27.089Z,29.35
2022-12-09T01:21:55.664Z,26.70
2022-12-09T01:24:24.702Z,26.73
2022-12-09T01:26:52.467Z,31.60
2022-12-09T01:29:20.610Z,33.72
2022-12-09T01:31:50.324Z,32.63
2022-12-09T01:34:18.181Z,32.50
2022-12-09T01:36:47.855Z,29.15
2022-12-09T01:39:16.811Z,31.20
2022-12-09T01:41:46.480Z,33.88
2022-12-09T01:44:21.345Z,35.03
2022-12-09T01:46:49.941Z,32.70
2022-12-09T01:49:23.880Z,32.10
2022-12-09T01:51:58.218Z,39.53
2022-12-09T01:54:26.115Z,35.70
2022-12-09T01:56:56.317Z,39.08
2022-12-09T01:59:25.441Z,42.15
2022-12-09T02:01:57.606Z,34.08
2022-12-09T02:04:26.310Z,36.10
2022-12-09T02:06:54.219Z,36.33
2022-12-09T02:09:22.288Z,41.35
2022-12-09T02:12:07.190Z,36.25
2022-12-09T02:14:40.478Z,38.72
2022-12-09T02:17:25.937Z,35.13
2022-12-09T02:20:04.081Z,39.60
2022-12-09T02:22:36.278Z,39.10
2022-12-09T02:25:13.993Z,32.47
2022-12-09T02:27:50.339Z,33.55
2022-12-09T02:30:21.431Z,37.30
2022-12-09T02:33:27.418Z,40.10
2022-12-09T02:36:03.315Z,31.63
2022-12-09T02:38:34.618Z,35.72
2022-12-09T02:41:07.633Z,30.30
2022-12-09T02:43:46.630Z,32.22
2022-12-09T02:46:21.151Z,31.45
2022-12-09T02:48:53.033Z,35.25
2022-12-09T02:51:25.183Z,31.83
2022-12-09T02:53:56.095Z,33.88
2022-12-09T02:56:26.125Z,38.25
2022-12-09T02:58:54.057Z,35.25
2022-12-09T03:01:34.596Z,35.45
2022-12-09T03:04:03.282Z,31.23
2022-12-09T03:06:39.719Z,31.70
2022-12-09T03:09:11.403Z,32.05
2022-12-09T03:11:41.407Z,34.67
2022-12-09T03:14:13.204Z,37.08
2022-12-09T03:16:46.976Z,28.23
2022-12-09T03:19:19.986Z,33.13
2022-12-09T03:21:52.348Z,30.33
2022-12-09T03:24:23.275Z,31.15
2022-12-09T03:26:52.617Z,31.55
2022-12-09T03:29:25.857Z,29.73
2022-12-09T03:31:57.885Z,30.00
2022-12-09T03:34:29.744Z,33.00
2022-12-09T03:36:59.494Z,30.05
2022-12-09T03:39:32.849Z,31.15
2022-12-09T03:42:05.064Z,28.42
2022-12-09T03:44:38.188Z,32.03
2022-12-09T03:47:08.023Z,25.98
2022-12-09T03:49:37.123Z,32.58
2022-12-09T03:52:12.200Z,34.45
2022-12-09T03:54:44.122Z,33.38
2022-12-09T03:57:18.732Z,36.10
2022-12-09T03:59:52.108Z,35.10
2022-12-09T04:02:20.091Z,34.35
2022-12-09T04:04:47.765Z,31.45
2022-12-09T04:07:16.917Z,32.22
2022-12-09T04:09:46.262Z,33.65
2022-12-09T04:12:14.048Z,33.72
2022-12-09T04:14:41.932Z,29.83
2022-12-09T04:17:11.153Z,39.13
2022-12-09T04:19:38.955Z,34.25
2022-12-09T04:22:06.651Z,45.00
2022-12-09T04:24:35.577Z,33.40
2022-12-09T04:27:03.187Z,37.88
2022-12-09T04:29:31.394Z,35.33
2022-12-09T04:31:59.604Z,33.85
2022-12-09T04:34:27.836Z,34.55
2022-12-09T04:36:55.622Z,38.63
2022-12-09T04:39:23.450Z,40.33
2022-12-09T04:41:52.476Z,35.63
2022-12-09T04:44:20.709Z,38.50
2022-12-09T04:46:51.002Z,33.58
2022-12-09T04:49:18.673Z,32.95
2022-12-09T04:51:46.454Z,34.30
2022-12-09T04:54:15.375Z,33.85
2022-12-09T04:56:43.767Z,31.00
2022-12-09T04:59:12.996Z,29.52
2022-12-09T05:01:40.889Z,37.08
2022-12-09T05:04:10.342Z,37.78
2022-12-09T05:06:38.709Z,35.20
2022-12-09T05:09:06.663Z,33.85
2022-12-09T05:11:34.642Z,29.35
2022-12-09T05:14:03.023Z,31.90
2022-12-09T05:16:32.407Z,34.40
2022-12-09T05:19:01.436Z,34.28
2022-12-09T05:21:31.980Z,34.20
2022-12-09T05:24:00.175Z,34.47
2022-12-09T05:26:28.280Z,31.92
2022-12-09T05:28:56.100Z,38.30
2022-12-09T05:31:25.299Z,37.08
2022-12-09T05:33:54.893Z,33.33
2022-12-09T05:36:25.742Z,37.83
2022-12-09T05:38:54.697Z,30.52
2022-12-09T05:41:23.629Z,34.50
2022-12-09T05:43:52.050Z,28.60
2022-12-09T05:46:20.088Z,29.17
2022-12-09T05:48:48.303Z,33.38
2022-12-09T05:51:22.578Z,26.63
2022-12-09T05:53:50.490Z,28.70
2022-12-09T05:56:18.888Z,31.05
2022-12-09T05:58:46.904Z,35.85
2022-12-09T06:01:15.524Z,31.15
2022-12-09T06:03:43.871Z,28.38
2022-12-09T06:06:14.888Z,31.27
2022-12-09T06:08:45.521Z,31.17
2022-12-09T06:11:15.570Z,29.52
2022-12-09T06:13:45.336Z,25.30
2022-12-09T06:16:14.715Z,31.83
2022-12-09T06:18:42.994Z,29.02
2022-12-09T06:21:13.410Z,28.85
2022-12-09T06:23:46.348Z,30.45
2022-12-09T06:26:37.562Z,28.33
2022-12-09T06:29:19.053Z,32.60
2022-12-09T06:31:59.701Z,28.80
2022-12-09T06:34:36.485Z,29.95
2022-12-09T06:37:18.949Z,29.75
2022-12-09T06:39:52.751Z,32.05
2022-12-09T06:42:21.246Z,31.35
2022-12-09T06:44:51.676Z,29.38
2022-12-09T06:47:22.008Z,28.30
2022-12-09T06:49:58.181Z,28.25
2022-12-09T06:52:34.574Z,29.17
2022-12-09T06:55:09.882Z,25.13
2022-12-09T06:57:47.467Z,27.00
2022-12-09T07:00:20.916Z,28.83
2022-12-09T07:02:54.530Z,30.60
2022-12-09T07:05:29.773Z,22.88
2022-12-09T07:08:01.974Z,27.70
2022-12-09T07:10:31.712Z,26.65
2022-12-09T07:13:00.518Z,25.15
2022-12-09T07:15:29.243Z,24.45
2022-12-09T07:17:57.872Z,22.42
2022-12-09T07:20:26.181Z,24.42
2022-12-09T07:22:54.380Z,24.70
2022-12-09T07:25:22.696Z,26.42
2022-12-09T07:27:52.271Z,23.98
2022-12-09T07:30:23.398Z,22.48
2022-12-09T07:32:51.170Z,28.95
2022-12-09T07:35:19.542Z,25.10
2022-12-09T07:37:49.265Z,25.52
2022-12-09T07:40:17.329Z,24.95
2022-12-09T07:42:45.266Z,28.92
2022-12-09T07:45:15.319Z,29.10
2022-12-09T07:47:43.984Z,29.17
2022-12-09T07:50:13.013Z,24.88
2022-12-09T07:52:40.987Z,28.70
2022-12-09T07:55:10.909Z,22.08
2022-12-09T07:57:41.787Z,27.20
2022-12-09T08:00:10.916Z,28.30
2022-12-09T08:02:48.846Z,26.55
2022-12-09T08:05:34.737Z,28.92
2022-12-09T08:08:18.318Z,26.23
2022-12-09T08:10:47.548Z,28.92
2022-12-09T08:13:15.462Z,28.05
2022-12-09T08:15:43.428Z,29.33
2022-12-09T08:18:12.815Z,28.20
2022-12-09T08:20:41.139Z,27.25
2022-12-09T08:23:09.017Z,30.83
2022-12-09T08:25:36.687Z,30.63
2022-12-09T08:28:04.757Z,31.27
2022-12-09T08:30:32.629Z,31.27
2022-12-09T08:33:00.811Z,28.33
2022-12-09T08:35:29.997Z,30.23
2022-12-09T08:37:57.776Z,31.90
2022-12-09T08:40:25.608Z,32.45
2022-12-09T08:42:53.773Z,30.63
2022-12-09T08:45:22.434Z,33.80
2022-12-09T08:47:51.531Z,26.92
2022-12-09T08:50:19.876Z,31.80
2022-12-09T08:52:49.187Z,32.33
2022-12-09T08:55:17.072Z,32.90
2022-12-09T08:57:45.187Z,32.63
2022-12-09T09:00:14.214Z,30.88
2022-12-09T09:02:43.198Z,30.77
2022-12-09T09:05:11.586Z,35.13
2022-12-09T09:07:41.587Z,32.90
2022-12-09T09:10:12.100Z,30.88
2022-12-09T09:12:43.589Z,30.00
2022-12-09T09:15:12.887Z,28.58
2022-12-09T09:17:42.064Z,27.08
2022-12-09T09:20:16.658Z,31.02
2022-12-09T09:22:45.070Z,28.52
2022-12-09T09:25:14.895Z,23.40
2022-12-09T09:27:42.849Z,28.70
2022-12-09T09:30:11.990Z,28.70
2022-12-09T09:32:39.884Z,26.35
2022-12-09T09:35:08.907Z,27.70
2022-12-09T09:37:37.665Z,23.35
2022-12-09T09:40:07.810Z,26.42
2022-12-09T09:42:44.731Z,26.08
2022-12-09T09:45:17.177Z,27.13
2022-12-09T09:47:51.341Z,23.50
2022-12-09T09:50:28.537Z,23.33
2022-12-09T09:52:57.658Z,24.55
2022-12-09T09:55:36.079Z,24.70
2022-12-09T09:58:17.041Z,26.90
2022-12-09T10:00:52.413Z,28.08
2022-12-09T10:03:30.413Z,27.02
2022-12-09T10:06:06.879Z,29.02
2022-12-09T10:08:45.717Z,23.48
2022-12-09T10:11:21.611Z,24.38
2022-12-09T10:13:58.340Z,22.95
2022-12-09T10:16:36.799Z,26.80
2022-12-09T10:19:09.690Z,24.08
2022-12-09T10:21:42.500Z,24.65
2022-12-09T10:24:21.414Z,22.70
2022-12-09T10:26:58.528Z,24.88
2022-12-09T10:29:58.408Z,25.30
2022-12-09T10:32:28.798Z,21.55
2022-12-09T10:34:57.408Z,28.40
2022-12-09T10:37:29.170Z,20.92
2022-12-09T10:40:04.139Z,26.13
2022-12-09T10:42:56.826Z,21.45
2022-12-09T10:45:32.168Z,23.70
2022-12-09T10:48:21.066Z,23.23
2022-12-09T10:50:56.110Z,23.50
2022-12-09T10:53:24.708Z,25.05
2022-12-09T10:55:54.827Z,24.10
2022-12-09T10:58:25.633Z,25.92
2022-12-09T11:01:04.447Z,22.63
2022-12-09T11:03:35.290Z,24.73
2022-12-09T11:06:11.491Z,24.77
2022-12-09T11:08:42.524Z,26.90
2022-12-09T11:11:11.081Z,22.60
2022-12-09T11:13:43.433Z,25.08
2022-12-09T11:16:13.449Z,23.25
2022-12-09T11:18:47.416Z,20.23
2022-12-09T11:21:33.748Z,25.00
2022-12-09T11:24:03.988Z,19.45
2022-12-09T11:26:36.645Z,21.52
2022-12-09T11:29:07.558Z,20.42
2022-12-09T11:31:40.938Z,26.00
2022-12-09T11:34:17.230Z,19.83
2022-12-09T11:39:42.444Z,20.05
2022-12-09T11:42:21.960Z,23.88
2022-12-09T11:44:56.780Z,22.77
2022-12-09T11:47:44.869Z,22.33
2022-12-09T11:50:22.615Z,19.55
2022-12-09T11:53:07.525Z,24.08
2022-12-09T11:55:49.071Z,20.52
2022-12-09T11:58:23.092Z,21.05
2022-12-09T12:00:55.315Z,24.88
2022-12-09T12:03:32.139Z,18.73
2022-12-09T12:06:03.481Z,21.90
2022-12-09T12:08:38.021Z,22.88
2022-12-09T12:11:14.834Z,22.52
2022-12-09T12:13:46.183Z,19.92
2022-12-09T12:16:21.724Z,24.65
2022-12-09T12:18:56.842Z,23.08
2022-12-09T12:21:42.550Z,18.20
2022-12-09T12:24:32.949Z,22.35
2022-12-09T12:27:15.174Z,22.30
2022-12-09T12:29:54.270Z,22.10
2022-12-09T12:32:34.256Z,23.10
2022-12-09T12:35:22.882Z,18.65
2022-12-09T12:38:02.038Z,23.52
2022-12-09T12:40:38.056Z,21.92
2022-12-09T12:43:38.747Z,21.88
2022-12-09T12:46:28.259Z,22.65
2022-12-09T12:49:11.008Z,23.33
2022-12-09T12:51:52.548Z,21.48
2022-12-09T12:54:29.100Z,20.60
2022-12-09T12:57:09.460Z,21.38
2022-12-09T12:59:47.209Z,19.33
2022-12-09T13:02:29.502Z,19.85
2022-12-09T13:05:03.412Z,18.95
2022-12-09T13:07:39.900Z,22.23
2022-12-09T13:10:19.123Z,21.70
2022-12-09T13:12:55.019Z,18.95
2022-12-09T13:15:32.254Z,24.77
2022-12-09T13:18:06.647Z,24.05
2022-12-09T13:20:47.345Z,25.58
2022-12-09T13:23:31.826Z,23.92
2022-12-09T13:26:13.498Z,22.58
2022-12-09T13:28:49.868Z,22.30
2022-12-09T13:31:21.073Z,21.58
2022-12-09T13:33:58.164Z,22.52
2022-12-09T13:36:36.635Z,23.05
2022-12-09T13:39:06.214Z,22.40
2022-12-09T13:41:56.593Z,21.00
2022-12-09T13:44:30.741Z,22.45
2022-12-09T13:47:15.513Z,24.23
2022-12-09T13:49:43.631Z,22.02
2022-12-09T13:52:11.449Z,19.92
2022-12-09T13:54:49.184Z,20.45
2022-12-09T13:57:25.951Z,18.48
2022-12-09T13:59:57.733Z,17.55
2022-12-09T14:02:34.971Z,17.50
2022-12-09T14:05:11.892Z,13.70
2022-12-09T14:07:43.667Z,14.45
2022-12-09T14:10:38.005Z,18.52
2022-12-09T14:13:28.270Z,16.60
2022-12-09T14:16:17.707Z,20.75
2022-12-09T14:18:47.852Z,14.30
2022-12-09T14:21:26.470Z,16.55
2022-12-09T14:24:32.295Z,18.30
2022-12-09T14:27:16.101Z,16.40
2022-12-09T14:29:55.760Z,17.40
2022-12-09T14:32:29.058Z,16.33
2022-12-09T14:35:07.297Z,15.48
2022-12-09T14:37:53.064Z,18.17
2022-12-09T14:40:33.130Z,18.13
2022-12-09T14:43:16.741Z,18.08
2022-12-09T14:45:51.372Z,17.02
2022-12-09T14:48:22.566Z,15.20
2022-12-09T14:54:46.814Z,17.10
2022-12-09T14:57:21.154Z,16.00
2022-12-09T14:59:52.506Z,16.10
2022-12-09T15:02:24.435Z,13.55
2022-12-09T15:04:53.637Z,16.30
2022-12-09T15:07:25.029Z,19.05
2022-12-09T15:09:56.150Z,18.55
2022-12-09T15:12:30.569Z,17.55
2022-12-09T15:15:04.954Z,24.33
2022-12-09T15:17:37.509Z,20.88
2022-12-09T15:20:06.532Z,20.23
2022-12-09T15:22:34.740Z,21.60
2022-12-09T15:25:04.412Z,21.13
2022-12-09T15:27:32.717Z,20.17
2022-12-09T15:30:01.786Z,18.48
2022-12-09T15:32:31.348Z,18.38
2022-12-09T15:35:18.278Z,19.60
2022-12-09T15:37:47.245Z,21.08
2022-12-09T15:40:19.952Z,21.88
2022-12-09T15:42:51.933Z,17.10
2022-12-09T15:45:24.264Z,21.30
2022-12-09T15:47:55.847Z,21.17
2022-12-09T15:50:27.062Z,20.92
2022-12-09T15:52:57.187Z,25.00
2022-12-09T15:55:28.325Z,21.52
2022-12-09T15:58:03.121Z,20.55
2022-12-09T16:00:32.583Z,26.02
2022-12-09T16:03:00.369Z,22.98
2022-12-09T16:05:28.267Z,23.23
2022-12-09T16:07:58.550Z,23.35
2022-12-09T16:10:27.589Z,21.83
2022-12-09T16:13:07.374Z,20.08
2022-12-09T16:15:46.889Z,22.63
2022-12-09T16:18:19.075Z,24.88
2022-12-09T16:21:01.719Z,20.85
2022-12-09T16:23:29.600Z,22.60
2022-12-09T16:26:06.383Z,22.25
2022-12-09T16:28:34.694Z,25.60
2022-12-09T16:31:16.520Z,24.10
2022-12-09T16:33:49.194Z,25.70
2022-12-09T16:36:20.017Z,28.95
2022-12-09T16:39:38.131Z,26.30
2022-12-09T16:42:21.836Z,24.55
2022-12-09T16:44:49.846Z,25.88
2022-12-09T16:47:19.405Z,27.63
2022-12-09T16:49:49.043Z,26.08
2022-12-09T16:52:18.724Z,27.95
2022-12-09T16:54:47.622Z,32.83
2022-12-09T16:57:19.717Z,32.28
2022-12-09T16:59:47.957Z,33.85
2022-12-09T17:02:22.070Z,34.70
2022-12-09T17:04:51.586Z,32.65
2022-12-09T17:07:19.267Z,30.20
2022-12-09T17:09:46.926Z,29.27
2022-12-09T17:12:18.799Z,28.33
2022-12-09T17:14:52.758Z,32.47
2022-12-09T17:17:26.818Z,28.83
2022-12-09T17:19:54.495Z,32.40
2022-12-09T17:22:22.220Z,29.25
2022-12-09T17:24:50.414Z,35.63
2022-12-09T17:27:19.508Z,31.98
2022-12-09T17:29:47.532Z,31.17
2022-12-09T17:32:15.165Z,37.67
2022-12-09T17:34:42.977Z,35.90
2022-12-09T17:37:10.744Z,36.88
2022-12-09T17:39:38.731Z,37.00
2022-12-09T17:42:06.468Z,31.23
2022-12-09T17:44:35.855Z,34.85
2022-12-09T17:47:03.453Z,34.28
2022-12-09T17:49:31.293Z,34.65
2022-12-09T17:51:59.036Z,36.00
2022-12-09T17:54:26.731Z,32.97
2022-12-09T17:56:54.382Z,28.17
2022-12-09T17:59:22.010Z,32.40
2022-12-09T18:01:50.956Z,31.33
2022-12-09T18:04:18.811Z,33.13
2022-12-09T18:06:47.078Z,34.97
2022-12-09T18:09:16.237Z,30.17
2022-12-09T18:11:44.453Z,38.30
2022-12-09T18:14:12.575Z,29.08
2022-12-09T18:16:40.719Z,29.60
2022-12-09T18:19:14.585Z,30.67
2022-12-09T18:21:42.407Z,31.40
2022-12-09T18:24:10.425Z,34.17
2022-12-09T18:26:41.623Z,31.90
2022-12-09T18:29:10.636Z,36.35
2022-12-09T18:31:38.616Z,34.80
2022-12-09T18:34:06.236Z,29.52
2022-12-09T18:36:35.251Z,33.08
2022-12-09T18:39:02.919Z,30.35
2022-12-09T18:41:32.068Z,30.50
2022-12-09T18:44:07.634Z,31.92
2022-12-09T18:46:38.818Z,34.13
2022-12-09T18:49:08.568Z,37.72
2022-12-09T18:51:39.032Z,32.92
2022-12-09T18:54:07.677Z,31.38
2022-12-09T18:56:36.930Z,32.80
2022-12-09T18:59:06.984Z,33.05
2022-12-09T19:01:39.407Z,31.58
2022-12-09T19:04:09.699Z,34.65
2022-12-09T19:06:41.112Z,32.70
2022-12-09T19:09:10.926Z,32.63
2022-12-09T19:11:40.848Z,34.17
2022-12-09T19:14:09.780Z,35.38
2022-12-09T19:16:38.164Z,31.27
2022-12-09T19:19:10.008Z,29.83
2022-12-09T19:21:40.120Z,27.88
2022-12-09T19:24:10.813Z,27.58
2022-12-09T19:26:38.460Z,31.15
2022-12-09T19:29:08.566Z,27.85
2022-12-09T19:31:39.714Z,25.98
2022-12-09T19:34:11.237Z,28.90
2022-12-09T19:36:40.264Z,28.48
2022-12-09T19:39:10.169Z,27.55
2022-12-09T19:41:39.031Z,31.25
2022-12-09T19:44:07.482Z,27.77
2022-12-09T19:46:36.608Z,26.42
2022-12-09T19:49:04.328Z,26.55
2022-12-09T19:51:32.206Z,25.90
2022-12-09T19:54:02.356Z,26.25
2022-12-09T19:56:30.720Z,28.15
2022-12-09T19:58:59.681Z,29.80
2022-12-09T20:01:28.998Z,30.75
2022-12-09T20:03:58.563Z,27.13
2022-12-09T20:06:26.751Z,29.42
2022-12-09T20:08:54.787Z,28.65
2022-12-09T20:11:26.004Z,30.38
2022-12-09T20:13:53.758Z,32.30
2022-12-09T20:16:23.404Z,32.03
2022-12-09T20:18:52.002Z,28.65
2022-12-09T20:21:21.080Z,30.23
2022-12-09T20:23:49.599Z,30.08
2022-12-09T20:26:19.428Z,31.55
2022-12-09T20:28:49.628Z,33.28
2022-12-09T20:31:19.733Z,31.75
2022-12-09T20:33:47.585Z,28.38
2022-12-09T20:36:21.007Z,34.50
2022-12-09T20:38:50.308Z,31.52
2022-12-09T20:41:18.189Z,33.28
2022-12-09T20:43:49.421Z,29.40
2022-12-09T20:46:18.869Z,35.38
2022-12-09T20:48:47.486Z,31.08
2022-12-09T20:51:16.997Z,32.95
2022-12-09T20:53:45.997Z,33.92
2022-12-09T20:56:14.429Z,28.65
2022-12-09T20:58:43.402Z,30.60
2022-12-09T21:01:14.703Z,33.40
2022-12-09T21:03:43.100Z,47.60
2022-12-09T21:06:12.314Z,32.35
2022-12-09T21:08:40.541Z,33.45
2022-12-09T21:11:10.987Z,30.20
2022-12-09T21:13:40.388Z,29.42
2022-12-09T21:16:10.537Z,29.20
2022-12-09T21:18:39.945Z,28.60
2022-12-09T21:21:07.523Z,27.23
2022-12-09T21:23:36.112Z,28.27
2022-12-09T21:26:05.624Z,30.92
2022-12-09T21:28:33.531Z,28.17
2022-12-09T21:31:06.577Z,27.17
2022-12-09T21:33:34.176Z,31.58
2022-12-09T21:36:06.018Z,30.45
2022-12-09T21:38:34.558Z,27.83
2022-12-09T21:41:04.562Z,27.48
2022-12-09T21:43:33.608Z,31.73
2022-12-09T21:46:02.706Z,25.30
2022-12-09T21:48:30.733Z,27.65
2022-12-09T21:51:01.890Z,28.67
2022-12-09T21:53:30.982Z,26.95
2022-12-09T21:56:02.694Z,30.88
2022-12-09T21:58:31.046Z,32.67
2022-12-09T22:00:59.382Z,31.05
2022-12-09T22:03:27.291Z,31.65
2022-12-09T22:05:58.354Z,32.08
2022-12-09T22:08:26.919Z,31.38
2022-12-09T22:10:58.222Z,32.28
2022-12-09T22:13:26.105Z,35.63
2022-12-09T22:15:53.967Z,28.65
2022-12-09T22:18:21.643Z,32.72
2022-12-09T22:21:23.200Z,35.35
2022-12-09T22:23:37.578Z,32.33
2022-12-09T22:26:07.765Z,35.10
2022-12-09T22:28:35.809Z,33.40
2022-12-09T22:31:09.725Z,34.00
2022-12-09T22:33:37.435Z,34.30
2022-12-09T22:36:05.950Z,30.92
2022-12-09T22:38:33.706Z,31.73
2022-12-09T22:41:04.597Z,28.45
2022-12-09T22:43:38.013Z,29.88
2022-12-09T22:46:06.878Z,33.22
2022-12-09T22:48:34.823Z,32.67
2022-12-09T22:51:04.494Z,37.97
2022-12-09T22:53:32.531Z,42.35
2022-12-09T22:56:00.473Z,37.28
2022-12-09T22:58:28.436Z,36.40
2022-12-09T23:00:58.081Z,36.95
2022-12-09T23:03:25.941Z,35.83
2022-12-09T23:05:53.553Z,35.55
2022-12-09T23:08:22.451Z,39.92
2022-12-09T23:10:50.229Z,36.85
2022-12-09T23:13:18.160Z,37.45
2022-12-09T23:15:47.154Z,41.08
2022-12-09T23:18:16.343Z,38.53
2022-12-09T23:20:44.036Z,38.28
2022-12-09T23:23:11.797Z,33.38
2022-12-09T23:25:39.395Z,37.90
2022-12-09T23:28:07.040Z,29.73
2022-12-09T23:30:34.873Z,38.17
2022-12-09T23:33:02.757Z,34.97
2022-12-09T23:35:31.886Z,30.38
2022-12-09T23:37:59.593Z,32.50
2022-12-09T23:40:27.300Z,36.78
2022-12-09T23:42:55.193Z,35.35
2022-12-09T23:45:22.918Z,37.22
2022-12-09T23:47:50.592Z,40.47
2022-12-09T23:50:18.350Z,40.03
2022-12-09T23:52:47.295Z,43.75
2022-12-09T23:55:15.099Z,47.00
2022-12-09T23:57:42.717Z,44.97
